Time;durP1;ratioP1;P1;durP2;ratioP2;P2;SDS_P1;SDS_P2;PMS_P1;PMS_P2;Temp;Humidity;BMP_temperature;BMP_pressure;BME280_temperature;BME280_humidity;BME280_pressure;Samples;Min_cycle;Max_cycle;Signal;HPM_P1;HPM_P2
2022/12/26 00:00:15;;;;;;;3.90;1.63;;;;;;;13.85;99.13;100059.28;8348370;28;20462;-49
2022/12/26 00:04:16;;;;;;;7.95;2.17;;;;;;;13.79;99.90;100055.38;8348651;28;20040;-50
2022/12/26 00:08:18;;;;;;;3.45;2.08;;;;;;;13.72;100.00;100050.78;8353048;28;20033;-54
2022/12/26 00:12:18;;;;;;;3.60;1.90;;;;;;;13.74;100.00;100067.78;8355098;28;20043;-50
2022/12/26 00:16:20;;;;;;;4.28;2.28;;;;;;;13.65;100.00;100069.66;8354533;28;20037;-52
2022/12/26 00:20:21;;;;;;;3.55;2.08;;;;;;;13.69;100.00;100070.16;8354608;28;20041;-54
2022/12/26 00:24:21;;;;;;;3.35;2.22;;;;;;;13.76;100.00;100071.19;8355885;28;20029;-51
2022/12/26 00:28:21;;;;;;;4.10;2.33;;;;;;;13.84;98.81;100065.72;8361169;28;20025;-51
2022/12/26 00:32:22;;;;;;;4.88;1.80;;;;;;;13.97;97.09;100063.34;8354026;28;20037;-51
2022/12/26 00:36:26;;;;;;;5.35;2.03;;;;;;;13.88;97.93;100079.81;8353716;28;20159;-53
2022/12/26 00:40:27;;;;;;;3.00;1.77;;;;;;;13.76;98.14;100065.75;8351947;28;20049;-50
2022/12/26 00:44:27;;;;;;;4.43;1.77;;;;;;;13.80;96.84;100058.94;8354012;28;20086;-52
2022/12/26 00:48:28;;;;;;;2.38;1.45;;;;;;;13.80;96.18;100069.81;8355025;28;20474;-51
2022/12/26 00:52:29;;;;;;;6.82;1.75;;;;;;;13.76;96.47;100076.63;8355836;28;20064;-52
2022/12/26 00:56:29;;;;;;;4.00;1.85;;;;;;;13.75;96.81;100085.75;8355353;28;20509;-50
2022/12/26 01:00:29;;;;;;;5.13;1.80;;;;;;;13.84;96.01;100082.03;8354944;28;20577;-50
2022/12/26 01:04:30;;;;;;;4.93;1.70;;;;;;;13.71;97.36;100082.56;8355198;28;20064;-51
2022/12/26 01:08:30;;;;;;;6.60;2.10;;;;;;;13.65;97.89;100101.41;8353223;28;20039;-52
2022/12/26 01:12:31;;;;;;;3.33;1.52;;;;;;;13.70;98.18;100120.78;8354939;28;20043;-51
2022/12/26 01:16:32;;;;;;;5.65;1.85;;;;;;;13.70;98.25;100128.91;8354644;28;20291;-51
2022/12/26 01:20:32;;;;;;;5.80;2.10;;;;;;;13.67;98.90;100132.81;8353355;28;20142;-54
2022/12/26 01:24:32;;;;;;;8.40;2.22;;;;;;;13.68;98.83;100125.50;8352769;28;20049;-52
2022/12/26 01:28:33;;;;;;;4.63;1.80;;;;;;;13.61;99.52;100122.63;8351296;28;20044;-54
2022/12/26 01:32:33;;;;;;;6.43;1.73;;;;;;;13.52;99.69;100134.53;8351551;28;20083;-54
2022/12/26 01:36:34;;;;;;;10.30;2.28;;;;;;;13.46;100.00;100134.34;8351923;28;20127;-54
2022/12/26 01:40:34;;;;;;;5.72;1.70;;;;;;;13.48;99.98;100156.75;8352184;28;20045;-52
2022/12/26 01:45:01;;;;;;;3.22;1.70;;;;;;;13.53;99.10;100140.78;8351462;28;20090;-52
2022/12/26 01:49:12;;;;;;;3.72;1.52;;;;;;;13.69;97.04;100146.22;8331901;28;20152;-53
2022/12/26 01:53:20;;;;;;;3.75;1.50;;;;;;;13.63;97.07;100128.75;8353552;28;20089;-51
2022/12/26 01:57:28;;;;;;;6.55;1.88;;;;;;;13.67;96.64;100126.53;8353574;28;20037;-54
2022/12/26 02:01:31;;;;;;;3.92;1.40;;;;;;;13.49;97.62;100118.56;8353192;28;20392;-53
2022/12/26 02:05:32;;;;;;;3.08;1.30;;;;;;;13.47;97.81;100127.88;8352382;28;20080;-52
2022/12/26 02:09:33;;;;;;;5.80;1.65;;;;;;;13.36;98.58;100133.66;8352833;28;20055;-52
2022/12/26 02:13:36;;;;;;;4.25;1.30;;;;;;;13.30;99.90;100161.47;8352795;28;20040;-52
2022/12/26 02:17:39;;;;;;;3.55;1.55;;;;;;;13.52;98.16;100160.81;8352850;28;20287;-54
2022/12/26 02:22:10;;;;;;;4.93;1.42;;;;;;;13.68;96.35;100144.53;8352632;28;20106;-52
2022/12/26 02:26:50;;;;;;;3.92;1.50;;;;;;;13.64;96.36;100164.91;8353171;28;20572;-52
2022/12/26 02:31:02;;;;;;;2.40;1.42;;;;;;;13.64;96.66;100164.91;8351253;28;20037;-53
2022/12/26 02:35:33;;;;;;;3.13;1.20;;;;;;;13.70;96.29;100167.78;8352543;28;20116;-55
2022/12/26 02:39:55;;;;;;;3.90;1.25;;;;;;;13.76;96.17;100179.88;8349956;28;20053;-53
2022/12/26 02:48:55;;;;;;;5.38;1.50;;;;;;;13.43;100.00;100169.97;8351623;28;20028;-53
2022/12/26 03:17:26;;;;;;;4.68;1.75;;;;;;;13.23;100.00;100165.84;8351751;28;20044;-52
2022/12/26 03:20:19;;;;;;;5.47;1.67;;;;;;;13.22;100.00;100166.88;8351438;28;20516;-50
2022/12/26 03:24:21;;;;;;;3.80;1.38;;;;;;;13.13;100.00;100149.72;8351491;28;20047;-51
2022/12/26 03:28:23;;;;;;;3.92;1.58;;;;;;;13.06;100.00;100175.84;8353985;28;20120;-50
2022/12/26 03:32:23;;;;;;;5.55;1.33;;;;;;;12.98;100.00;100177.63;8355532;28;20044;-51
2022/12/26 03:36:38;;;;;;;4.32;1.58;;;;;;;12.90;100.00;100180.31;8355125;28;20119;-50
2022/12/26 04:44:13;;;;;;;1.45;1.08;;;;;;;12.51;100.00;100196.22;8358345;28;20122;-53
2022/12/26 04:52:23;;;;;;;4.97;1.23;;;;;;;12.42;100.00;100212.59;8341100;28;20406;-55
2022/12/26 04:56:24;;;;;;;3.15;1.33;;;;;;;12.43;100.00;100204.31;8341694;28;20045;-56
2022/12/26 05:00:27;;;;;;;3.40;1.15;;;;;;;12.39;100.00;100207.50;8323304;28;20152;-54
2022/12/26 05:09:48;;;;;;;5.15;1.58;;;;;;;12.17;100.00;100213.44;8354005;28;20390;-53
2022/12/26 05:13:08;;;;;;;3.13;1.30;;;;;;;12.08;100.00;100236.94;8324153;28;20044;-54
2022/12/26 05:30:12;;;;;;;2.85;0.80;;;;;;;11.99;100.00;100220.75;8324039;28;20038;-54
2022/12/26 05:34:16;;;;;;;1.80;0.77;;;;;;;11.98;100.00;100224.47;8323311;28;20048;-54
2022/12/26 05:38:16;;;;;;;2.08;0.95;;;;;;;11.92;100.00;100222.38;8322441;28;20039;-55
2022/12/26 05:42:17;;;;;;;3.88;1.65;;;;;;;11.96;100.00;100221.94;8323604;28;20045;-56
2022/12/26 05:46:17;;;;;;;2.85;0.75;;;;;;;11.95;100.00;100216.66;8323977;28;20041;-53
2022/12/26 05:50:18;;;;;;;2.58;0.90;;;;;;;11.87;100.00;100201.19;8322835;28;20395;-52
2022/12/26 05:54:18;;;;;;;2.05;0.85;;;;;;;11.83;100.00;100221.44;8322351;28;20047;-52
2022/12/26 05:58:19;;;;;;;2.22;0.75;;;;;;;11.82;100.00;100230.59;8321090;28;20040;-55
2022/12/26 06:02:20;;;;;;;1.50;0.68;;;;;;;11.74;100.00;100223.25;8321933;28;20045;-53
2022/12/26 06:06:22;;;;;;;2.25;0.82;;;;;;;11.69;100.00;100220.13;8321975;28;20035;-55
2022/12/26 06:10:25;;;;;;;3.45;0.85;;;;;;;11.68;100.00;100229.28;8327584;28;20072;-57
2022/12/26 06:14:25;;;;;;;0.85;0.60;;;;;;;11.71;100.00;100253.34;8339443;28;20034;-56
2022/12/26 06:18:26;;;;;;;1.92;0.93;;;;;;;11.71;100.00;100256.03;8323364;28;20048;-56
2022/12/26 06:22:28;;;;;;;2.47;0.98;;;;;;;11.74;100.00;100235.91;8329199;28;20082;-56
2022/12/26 06:26:28;;;;;;;6.05;1.80;;;;;;;11.77;100.00;100238.31;8322708;28;20403;-56
2022/12/26 06:30:29;;;;;;;1.48;0.80;;;;;;;11.75;100.00;100230.34;8326759;28;20033;-56
2022/12/26 06:34:29;;;;;;;1.23;0.70;;;;;;;11.73;100.00;100235.09;8319207;28;20120;-54
2022/12/26 06:38:30;;;;;;;0.52;0.52;;;;;;;11.72;100.00;100241.50;8321078;28;20037;-56
2022/12/26 06:42:30;;;;;;;1.05;0.60;;;;;;;11.67;100.00;100241.13;8321633;28;20045;-57
2022/12/26 06:46:32;;;;;;;0.73;0.50;;;;;;;11.72;100.00;100236.06;8347354;28;20044;-57
2022/12/26 06:50:35;;;;;;;1.13;0.47;;;;;;;11.73;100.00;100245.94;8353866;28;20046;-56
2022/12/26 06:54:36;;;;;;;1.65;0.60;;;;;;;11.71;100.00;100253.34;8352312;28;20041;-57
2022/12/26 06:58:37;;;;;;;2.53;0.50;;;;;;;11.68;100.00;100267.19;8353675;28;20111;-53
2022/12/26 07:02:38;;;;;;;0.47;0.47;;;;;;;11.70;100.00;100269.75;8353745;28;20033;-56
2022/12/26 07:06:38;;;;;;;0.60;0.50;;;;;;;11.71;100.00;100266.88;8353805;28;20121;-55
2022/12/26 07:10:39;;;;;;;2.17;0.80;;;;;;;11.72;100.00;100259.63;8353123;28;20043;-57
2022/12/26 07:14:40;;;;;;;2.83;0.70;;;;;;;11.70;100.00;100257.06;8354888;28;20530;-55
2022/12/26 07:18:41;;;;;;;4.07;0.90;;;;;;;11.65;100.00;100262.06;8359924;28;20045;-57
2022/12/26 07:22:41;;;;;;;1.60;0.70;;;;;;;11.61;100.00;100268.78;8360375;28;20083;-53
2022/12/26 07:26:42;;;;;;;1.75;0.60;;;;;;;11.52;100.00;100277.81;8360455;28;20046;-56
2022/12/26 07:30:47;;;;;;;1.00;0.60;;;;;;;11.49;100.00;100283.53;8359005;28;20041;-54
2022/12/26 07:34:47;;;;;;;2.42;0.70;;;;;;;11.50;100.00;100304.19;8351767;28;20036;-55
2022/12/26 07:38:48;;;;;;;0.98;0.77;;;;;;;11.48;100.00;100300.78;8359962;28;20041;-56
2022/12/26 07:42:53;;;;;;;1.13;0.80;;;;;;;11.44;100.00;100312.91;8360375;28;20170;-54
2022/12/26 07:46:54;;;;;;;1.02;0.60;;;;;;;11.40;100.00;100306.09;8360460;28;20048;-55
2022/12/26 07:51:00;;;;;;;2.75;0.90;;;;;;;11.38;100.00;100313.50;8358827;28;20056;-56
2022/12/26 07:55:01;;;;;;;2.05;0.77;;;;;;;11.41;100.00;100313.19;8359838;28;20063;-53
2022/12/26 07:59:01;;;;;;;2.45;1.00;;;;;;;11.42;100.00;100325.75;8358046;28;20071;-57
2022/12/26 08:03:02;;;;;;;1.98;0.90;;;;;;;11.44;100.00;100326.44;8357791;28;20471;-57
2022/12/26 08:07:02;;;;;;;2.67;1.27;;;;;;;11.56;100.00;100322.53;8359601;28;20033;-54
2022/12/26 08:11:06;;;;;;;3.13;1.90;;;;;;;11.68;100.00;100318.63;8358548;28;20124;-57
2022/12/26 08:15:08;;;;;;;4.53;1.35;;;;;;;11.82;100.00;100309.13;8359406;28;20045;-54
2022/12/26 08:19:10;;;;;;;1.80;1.08;;;;;;;11.98;100.00;100313.88;8357114;28;20047;-56
2022/12/26 08:23:10;;;;;;;4.95;1.33;;;;;;;12.00;100.00;100325.41;8352417;28;20049;-56
2022/12/26 08:27:11;;;;;;;4.93;2.22;;;;;;;12.02;100.00;100312.56;8372098;28;20047;-55
2022/12/26 08:31:12;;;;;;;2.88;2.00;;;;;;;12.05;100.00;100306.81;8357509;28;20033;-56
2022/12/26 08:35:13;;;;;;;2.28;1.77;;;;;;;12.06;100.00;100312.09;8356538;28;20048;-56
2022/12/26 08:39:13;;;;;;;5.68;1.17;;;;;;;12.10;100.00;100304.50;8355408;28;20041;-54
2022/12/26 08:43:14;;;;;;;2.47;1.20;;;;;;;12.19;100.00;100320.69;8357190;28;20251;-57
2022/12/26 08:47:14;;;;;;;3.50;1.17;;;;;;;12.50;100.00;100329.25;8356324;28;20282;-56
2022/12/26 08:51:18;;;;;;;2.28;1.20;;;;;;;12.80;100.00;100326.94;8354265;28;20060;-56
2022/12/26 08:55:19;;;;;;;3.10;1.13;;;;;;;12.65;100.00;100338.50;8342353;28;20305;-57
2022/12/26 08:59:19;;;;;;;3.85;1.02;;;;;;;12.57;100.00;100349.31;8349683;28;20040;-52
2022/12/26 09:03:20;;;;;;;1.17;0.95;;;;;;;12.52;100.00;100349.78;8353506;28;20052;-56
2022/12/26 09:07:20;;;;;;;0.90;0.60;;;;;;;12.52;100.00;100368.75;8353948;28;20193;-54
2022/12/26 09:11:27;;;;;;;2.78;0.60;;;;;;;12.55;100.00;100364.88;8355260;28;20418;-55
2022/12/26 09:15:28;;;;;;;3.42;0.90;;;;;;;12.64;100.00;100369.34;8355682;28;20163;-53
2022/12/26 09:19:31;;;;;;;1.30;0.70;;;;;;;13.33;100.00;100378.34;8353339;28;20049;-53
2022/12/26 09:23:33;;;;;;;3.00;1.15;;;;;;;13.82;96.31;100377.56;8353627;28;20468;-55
2022/12/26 09:27:33;;;;;;;1.73;0.75;;;;;;;13.59;95.20;100374.56;8353236;28;20749;-56
2022/12/26 09:31:34;;;;;;;2.65;0.57;;;;;;;13.11;97.94;100389.72;8350531;28;22619;-53
2022/12/26 09:35:39;;;;;;;2.63;0.82;;;;;;;13.02;98.15;100407.00;8353388;28;20052;-52
2022/12/26 09:39:40;;;;;;;2.28;0.73;;;;;;;12.99;98.68;100419.00;8351367;28;20533;-56
2022/12/26 09:44:20;;;;;;;1.88;0.90;;;;;;;13.03;98.41;100422.25;8353316;28;20443;-56
2022/12/26 09:48:29;;;;;;;2.03;0.73;;;;;;;13.02;97.45;100426.00;8346550;28;20514;-56
2022/12/26 09:52:50;;;;;;;3.22;0.88;;;;;;;13.03;97.46;100424.97;8348254;28;20040;-56
2022/12/26 09:56:52;;;;;;;1.70;1.00;;;;;;;13.02;97.21;100415.16;8356835;28;20048;-57
2022/12/26 10:01:00;;;;;;;1.20;0.70;;;;;;;13.02;97.24;100407.00;8345494;28;20045;-56
2022/12/26 10:05:01;;;;;;;4.88;1.10;;;;;;;13.13;95.99;100404.88;8347488;28;20472;-52
2022/12/26 10:09:41;;;;;;;3.55;0.88;;;;;;;13.25;94.12;100419.03;8347906;28;20358;-53
2022/12/26 10:13:50;;;;;;;3.33;0.82;;;;;;;13.36;93.99;100421.47;8348902;28;20518;-51
2022/12/26 10:18:15;;;;;;;3.08;0.98;;;;;;;13.41;92.74;100440.84;8342894;28;20128;-51
2022/12/26 10:26:50;;;;;;;3.45;0.75;;;;;;;13.31;93.78;100423.81;8290106;27;20389;-53
2022/12/26 10:30:55;;;;;;;4.28;1.20;;;;;;;13.11;95.14;100438.59;8295529;28;20066;-53
2022/12/26 10:34:57;;;;;;;2.05;0.85;;;;;;;13.03;95.36;100430.41;8292721;28;20034;-54
2022/12/26 10:38:59;;;;;;;4.53;0.90;;;;;;;13.07;94.72;100437.22;8291892;28;20544;-51
2022/12/26 10:43:17;;;;;;;6.63;0.90;;;;;;;12.98;96.05;100421.84;8293558;28;20034;-53
2022/12/26 10:47:39;;;;;;;2.10;0.70;;;;;;;13.08;93.79;100428.91;8311264;28;20517;-54
2022/12/26 10:51:39;;;;;;;5.35;0.80;;;;;;;13.11;92.56;100427.72;8311579;28;20145;-52
2022/12/26 10:55:41;;;;;;;3.67;0.73;;;;;;;13.25;93.16;100435.31;8311096;28;20049;-51
2022/12/26 10:59:46;;;;;;;4.22;0.70;;;;;;;13.37;92.26;100418.59;8309458;28;20069;-54
2022/12/26 11:03:54;;;;;;;3.03;0.70;;;;;;;13.43;90.32;100422.53;8309909;28;20061;-54
2022/12/26 11:08:04;;;;;;;4.72;0.65;;;;;;;13.37;90.72;100424.03;8309720;28;20355;-54
2022/12/26 11:12:17;;;;;;;2.30;0.85;;;;;;;13.38;91.00;100424.84;8313094;28;20052;-51
2022/12/26 11:16:25;;;;;;;3.13;0.70;;;;;;;13.49;89.40;100419.16;8287321;28;20041;-51
2022/12/26 11:20:28;;;;;;;3.05;0.95;;;;;;;13.61;89.08;100428.75;8312140;28;20045;-51
2022/12/26 11:24:29;;;;;;;4.30;0.73;;;;;;;13.73;89.60;100427.44;8301978;28;20355;-52
2022/12/26 11:28:35;;;;;;;5.38;0.70;;;;;;;13.88;88.95;100425.81;8300969;28;20376;-54
2022/12/26 11:32:35;;;;;;;3.50;1.00;;;;;;;14.03;87.42;100426.03;8312429;28;20061;-51
2022/12/26 11:36:43;;;;;;;5.25;0.70;;;;;;;14.23;85.94;100428.31;8289513;28;20247;-52
2022/12/26 11:41:30;;;;;;;8.18;1.60;;;;;;;14.02;83.69;100433.31;8282399;28;20072;-51
2022/12/26 11:45:09;;;;;;;;;;;;;;;13.75;84.47;100433.53;8263653;28;20043;-53
2022/12/26 11:49:33;;;;;;;3.47;0.88;;;;;;;13.55;84.99;100432.09;8272385;28;19929;-51
2022/12/26 11:53:34;;;;;;;5.72;1.00;;;;;;;13.52;86.14;100444.16;8285114;28;20113;-51
2022/12/26 11:57:34;;;;;;;3.72;0.80;;;;;;;13.34;87.59;100439.78;8273340;28;20520;-51
2022/12/26 12:01:35;;;;;;;2.90;0.90;;;;;;;13.30;87.19;100449.28;8274820;28;20121;-54
2022/12/26 12:10:32;;;;;;;2.60;0.95;;;;;;;13.05;90.36;100450.09;8389547;27;20911;-49
2022/12/26 12:14:59;;;;;;;3.03;0.82;;;;;;;12.85;91.77;100443.97;8406939;28;20551;-50
2022/12/26 12:19:23;;;;;;;3.33;0.95;;;;;;;12.72;94.02;100442.66;8386718;27;20422;-51
2022/12/26 12:23:42;;;;;;;6.80;1.13;;;;;;;12.59;97.61;100453.06;8376341;27;20055;-50
2022/12/26 12:32:12;;;;;;;3.45;1.00;;;;;;;12.50;100.00;100443.16;8381349;27;20394;-50
2022/12/26 12:40:49;;;;;;;4.95;1.10;;;;;;;12.52;100.00;100435.69;8300414;28;20399;-50
2022/12/26 12:49:51;;;;;;;7.55;1.08;;;;;;;12.55;99.61;100424.53;8341192;27;20366;-49
2022/12/26 12:58:29;;;;;;;2.33;1.00;;;;;;;12.78;98.14;100442.03;8309409;27;20736;-49
2022/12/26 13:02:38;;;;;;;4.53;1.23;;;;;;;12.78;96.98;100437.44;8249183;28;20057;-51
2022/12/26 13:06:48;;;;;;;4.95;1.35;;;;;;;12.84;96.08;100446.84;8274470;28;20064;-50
2022/12/26 13:10:53;;;;;;;3.45;1.20;;;;;;;12.79;96.74;100441.03;8258934;28;20046;-49
2022/12/26 13:15:01;;;;;;;4.85;1.00;;;;;;;12.68;96.31;100435.81;8272900;28;20038;-50
2022/12/26 13:19:05;;;;;;;4.18;1.27;;;;;;;12.38;100.00;100442.50;8269145;28;20597;-49
2022/12/26 13:24:46;;;;;;;3.05;0.70;;;;;;;12.19;100.00;100439.06;8273266;28;20538;-50
2022/12/26 13:28:14;;;;;;;8.90;1.27;;;;;;;11.80;100.00;100462.81;8278970;28;20042;-52
2022/12/26 13:32:32;;;;;;;5.32;1.60;;;;;;;11.44;100.00;100455.53;8278944;28;20092;-50
2022/12/26 13:36:36;;;;;;;1.70;0.70;;;;;;;11.10;100.00;100455.19;8279057;28;20038;-52
2022/12/26 13:40:44;;;;;;;1.80;0.95;;;;;;;10.97;100.00;100460.06;8280776;28;20057;-52
2022/12/26 13:44:45;;;;;;;1.70;0.73;;;;;;;10.89;100.00;100451.78;8280232;28;20030;-50
2022/12/26 13:48:54;;;;;;;2.33;0.63;;;;;;;10.87;100.00;100459.22;8275955;28;20617;-50
2022/12/26 13:52:55;;;;;;;0.73;0.50;;;;;;;10.84;100.00;100469.47;8277569;28;20042;-51
2022/12/26 13:57:13;;;;;;;2.17;0.55;;;;;;;10.86;100.00;100479.13;8277121;28;20046;-50
2022/12/26 14:01:54;;;;;;;2.70;0.75;;;;;;;10.87;100.00;100474.59;8286844;28;20042;-53
2022/12/26 14:06:34;;;;;;;2.03;0.60;;;;;;;10.82;100.00;100488.53;8275649;28;20104;-51
2022/12/26 14:11:00;;;;;;;3.72;0.85;;;;;;;10.77;100.00;100498.91;8254950;28;20419;-50
2022/12/26 14:15:20;;;;;;;3.92;1.73;;;;;;;10.73;100.00;100511.03;8254482;28;20042;-50
2022/12/26 14:20:01;;;;;;;3.30;0.82;;;;;;;10.68;100.00;100528.69;8250080;28;20189;-50
2022/12/26 14:24:25;;;;;;;5.70;1.42;;;;;;;10.66;100.00;100531.53;8253533;28;20121;-53
2022/12/26 14:28:36;;;;;;;2.35;1.30;;;;;;;10.62;100.00;100532.81;8255798;28;20049;-53
2022/12/26 14:33:16;;;;;;;4.88;1.27;;;;;;;10.54;100.00;100529.94;8244027;28;20049;-51
2022/12/26 14:37:30;;;;;;;4.13;1.63;;;;;;;10.48;100.00;100546.72;8253479;28;20046;-52
2022/12/26 14:57:44;;;;;;;4.78;1.40;;;;;;;10.22;100.00;100569.84;8251068;28;20053;-52
2022/12/26 15:01:47;;;;;;;5.35;1.70;;;;;;;10.19;100.00;100570.13;8259692;28;20538;-50
2022/12/26 15:05:50;;;;;;;11.57;1.92;;;;;;;10.22;100.00;100569.84;8256679;28;20053;-51
2022/12/26 15:10:24;;;;;;;11.50;1.85;;;;;;;10.17;100.00;100590.13;8252522;28;20103;-50
2022/12/26 15:19:24;;;;;;;11.25;2.10;;;;;;;10.09;100.00;100612.41;8393620;27;20401;-51
2022/12/26 15:32:16;;;;;;;8.88;2.40;;;;;;;10.02;100.00;100638.22;8404372;27;20364;-50
2022/12/26 15:36:41;;;;;;;6.28;1.80;;;;;;;10.02;98.09;100643.63;8475167;27;20504;-51
2022/12/26 15:40:51;;;;;;;5.95;1.70;;;;;;;9.96;98.27;100652.28;8465707;27;20127;-53
2022/12/26 15:45:14;;;;;;;6.55;1.70;;;;;;;9.95;97.57;100674.88;8469269;27;20051;-54
2022/12/26 15:49:33;;;;;;;7.35;2.03;;;;;;;9.93;98.00;100671.44;8474618;27;20197;-51
2022/12/26 15:54:00;;;;;;;6.97;2.72;;;;;;;9.92;96.51;100685.94;8471940;27;20078;-54
2022/12/26 16:02:46;;;;;;;10.98;2.17;;;;;;;9.82;95.61;100704.75;8321285;27;20411;-53
2022/12/26 16:07:17;;;;;;;7.95;1.65;;;;;;;9.77;95.55;100711.56;8308231;28;20050;-50
2022/12/26 16:11:21;;;;;;;4.18;1.45;;;;;;;9.76;95.07;100707.16;8301817;28;20084;-53
2022/12/26 16:15:23;;;;;;;7.65;1.98;;;;;;;9.69;94.10;100723.00;8304448;28;20065;-54
2022/12/26 16:19:26;;;;;;;10.00;3.17;;;;;;;9.62;97.36;100731.75;8298031;28;20038;-50
2022/12/26 16:23:30;;;;;;;12.57;3.50;;;;;;;9.44;98.93;100739.56;8297254;28;20120;-54
2022/12/26 16:27:31;;;;;;;12.30;4.40;;;;;;;9.44;99.98;100750.34;8298702;28;20474;-51
2022/12/26 16:31:31;;;;;;;11.38;4.25;;;;;;;9.35;98.88;100744.84;8307812;28;20132;-51
2022/12/26 16:35:35;;;;;;;7.55;4.10;;;;;;;9.28;98.14;100757.13;8316183;28;20112;-51
2022/12/26 16:39:35;;;;;;;10.55;4.55;;;;;;;9.20;98.60;100763.16;8311794;28;20049;-51
2022/12/26 16:43:36;;;;;;;12.32;4.82;;;;;;;9.10;100.00;100782.91;8311801;28;20038;-51
2022/12/26 16:47:36;;;;;;;15.77;5.07;;;;;;;9.08;100.00;100779.47;8288684;28;20046;-52
2022/12/26 16:51:44;;;;;;;16.10;5.35;;;;;;;9.03;100.00;100781.72;8283786;28;20042;-52
2022/12/26 16:55:59;;;;;;;10.88;4.60;;;;;;;8.89;100.00;100768.47;8292730;28;20049;-52
2022/12/26 17:00:00;;;;;;;10.80;5.03;;;;;;;8.83;100.00;100774.34;8309417;28;20038;-51
2022/12/26 17:04:05;;;;;;;14.93;4.32;;;;;;;8.84;100.00;100781.50;8288763;28;20045;-51
2022/12/26 17:08:05;;;;;;;15.77;4.43;;;;;;;8.75;100.00;100788.44;8295991;28;20046;-53
2022/12/26 17:12:16;;;;;;;10.77;1.77;;;;;;;8.53;91.39;100809.13;8286344;28;20045;-51
2022/12/26 17:16:16;;;;;;;5.97;1.83;;;;;;;8.42;88.47;100818.06;8282572;28;20034;-52
2022/12/26 17:24:34;;;;;;;6.47;1.63;;;;;;;8.23;87.36;100842.00;8295463;28;20403;-52
2022/12/26 17:28:36;;;;;;;11.82;2.63;;;;;;;8.20;87.53;100847.59;8281043;28;20056;-51
2022/12/26 17:32:42;;;;;;;9.48;2.10;;;;;;;8.13;86.32;100861.66;8309059;28;20069;-51
2022/12/26 17:36:42;;;;;;;10.48;2.15;;;;;;;7.96;85.96;100869.19;8308806;28;20104;-55
2022/12/26 17:40:46;;;;;;;7.15;2.00;;;;;;;7.75;86.18;100870.78;8312420;28;20112;-50
2022/12/26 17:44:46;;;;;;;8.50;2.35;;;;;;;7.54;89.05;100883.13;8304499;28;20562;-51
2022/12/26 17:48:47;;;;;;;13.52;2.38;;;;;;;7.45;89.05;100875.75;8291146;28;20459;-54
2022/12/26 17:52:47;;;;;;;11.05;2.22;;;;;;;7.40;88.55;100885.09;8297156;28;20058;-49
2022/12/26 17:56:48;;;;;;;7.10;2.35;;;;;;;7.36;87.75;100900.63;8298579;28;20061;-51
2022/12/26 18:00:49;;;;;;;8.70;2.92;;;;;;;7.30;88.73;100914.50;8307386;28;20045;-50
2022/12/26 18:04:50;;;;;;;14.35;2.38;;;;;;;7.19;87.98;100921.59;8306422;28;20160;-50
2022/12/26 18:08:50;;;;;;;7.32;2.28;;;;;;;7.21;88.61;100920.56;8310667;28;20038;-50
2022/12/26 18:12:51;;;;;;;7.50;2.03;;;;;;;7.23;89.94;100921.28;8309881;28;20046;-51
2022/12/26 18:16:51;;;;;;;9.60;2.58;;;;;;;7.12;89.03;100940.03;8317059;28;20127;-50
2022/12/26 18:20:52;;;;;;;8.63;1.80;;;;;;;7.05;89.67;100944.09;8312917;28;20042;-50
2022/12/26 18:24:53;;;;;;;14.38;2.85;;;;;;;7.00;90.09;100951.63;8312921;28;20092;-50
2022/12/26 18:28:54;;;;;;;12.13;2.50;;;;;;;6.78;90.45;100951.41;8312491;28;20693;-50
2022/12/26 18:32:54;;;;;;;11.20;2.60;;;;;;;6.71;91.87;100958.16;8305688;28;20062;-50
2022/12/26 18:36:54;;;;;;;9.25;2.78;;;;;;;6.69;92.16;100972.69;8290934;28;20041;-50
2022/12/26 18:40:59;;;;;;;11.30;2.95;;;;;;;6.63;92.45;100990.06;8290792;28;20034;-49
2022/12/26 18:45:00;;;;;;;7.45;2.25;;;;;;;6.50;93.73;100989.19;8291439;28;20045;-50
2022/12/26 18:49:00;;;;;;;11.90;3.00;;;;;;;6.41;94.11;101000.56;8286998;28;20507;-50
2022/12/26 18:53:01;;;;;;;13.05;2.90;;;;;;;6.41;94.56;101011.28;8286735;28;20409;-50
2022/12/26 18:57:03;;;;;;;10.77;2.72;;;;;;;6.30;94.58;101019.19;8286898;28;20049;-50
2022/12/26 19:01:04;;;;;;;9.02;2.63;;;;;;;6.29;95.55;101022.84;8284893;28;20041;-51
2022/12/26 19:05:05;;;;;;;13.20;4.00;;;;;;;6.27;95.51;101029.25;8287595;28;20125;-52
2022/12/26 19:09:09;;;;;;;14.45;3.20;;;;;;;6.23;95.48;101043.84;8289162;28;20038;-51
2022/12/26 19:13:09;;;;;;;7.70;3.30;;;;;;;6.07;95.91;101046.66;8289526;28;20052;-51
2022/12/26 19:17:10;;;;;;;7.05;3.00;;;;;;;5.96;96.67;101062.59;8289422;28;20034;-51
2022/12/26 19:21:12;;;;;;;12.60;4.00;;;;;;;5.88;98.56;101070.28;8289656;28;20053;-53
2022/12/26 19:25:14;;;;;;;12.38;3.33;;;;;;;5.73;99.51;101073.88;8290546;28;20362;-52
2022/12/26 19:29:14;;;;;;;11.05;3.35;;;;;;;5.66;100.00;101069.88;8279775;28;20049;-53
2022/12/26 19:33:15;;;;;;;15.88;3.00;;;;;;;5.67;98.93;101080.50;8288218;28;20038;-54
2022/12/26 19:37:15;;;;;;;14.60;3.28;;;;;;;5.65;96.70;101089.63;8284728;28;20411;-53
2022/12/26 19:41:16;;;;;;;8.35;2.22;;;;;;;5.62;95.43;101096.03;8284813;28;20522;-52
2022/12/26 19:45:16;;;;;;;14.65;2.00;;;;;;;5.59;94.16;101103.41;8283877;28;20515;-52
2022/12/26 19:49:17;;;;;;;13.00;2.35;;;;;;;5.63;93.10;101103.13;8284431;28;20121;-51
2022/12/26 19:53:17;;;;;;;10.27;2.00;;;;;;;5.56;93.13;101106.28;8268863;28;20053;-50
2022/12/26 19:57:18;;;;;;;11.93;2.03;;;;;;;5.48;92.20;101111.25;8280342;28;20092;-52
2022/12/26 20:01:22;;;;;;;14.85;2.95;;;;;;;5.57;92.17;101114.22;8283919;28;20749;-52
2022/12/26 20:05:22;;;;;;;15.50;2.53;;;;;;;5.62;90.48;101116.63;8276414;28;20049;-50
2022/12/26 20:09:22;;;;;;;10.77;2.10;;;;;;;5.59;90.39;101122.19;8276996;28;20129;-50
2022/12/26 20:13:23;;;;;;;7.20;2.05;;;;;;;5.58;90.26;101125.84;8273507;28;20077;-51
2022/12/26 20:17:23;;;;;;;4.65;1.77;;;;;;;5.48;90.89;101135.38;8281809;28;20038;-50
2022/12/26 20:21:24;;;;;;;10.13;2.13;;;;;;;5.41;90.82;101137.59;8279947;28;20038;-50
2022/12/26 20:25:25;;;;;;;7.68;2.17;;;;;;;5.35;90.94;101150.50;8281555;28;20045;-51
2022/12/26 20:29:25;;;;;;;5.55;2.05;;;;;;;5.40;91.83;101154.59;8277935;28;20038;-50
2022/12/26 20:33:26;;;;;;;16.05;2.30;;;;;;;5.42;90.44;101151.84;8277349;28;20034;-52
2022/12/26 20:37:26;;;;;;;9.20;2.30;;;;;;;5.42;90.39;101162.56;8273372;28;20173;-53
2022/12/26 20:41:27;;;;;;;13.32;3.05;;;;;;;5.39;90.42;101152.00;8259206;28;20129;-54
2022/12/26 20:45:28;;;;;;;11.32;2.25;;;;;;;5.44;90.82;101164.22;8284449;28;20505;-50
2022/12/26 20:49:28;;;;;;;11.43;2.42;;;;;;;5.47;90.19;101166.72;8285093;28;20136;-52
2022/12/26 20:53:30;;;;;;;14.88;2.17;;;;;;;5.43;90.43;101170.50;8283179;28;20312;-50
2022/12/26 20:57:30;;;;;;;16.83;2.80;;;;;;;5.44;91.14;101166.91;8282490;28;20056;-52
2022/12/26 21:01:31;;;;;;;6.50;1.73;;;;;;;5.40;90.65;101177.91;8283656;28;20495;-50
2022/12/26 21:05:32;;;;;;;16.15;2.83;;;;;;;5.36;91.77;101184.38;8284724;28;20368;-53
2022/12/26 21:09:32;;;;;;;10.35;2.67;;;;;;;5.32;92.57;101188.19;8284599;28;20136;-51
2022/12/26 21:13:34;;;;;;;10.10;2.53;;;;;;;5.21;93.79;101198.69;8283539;28;20065;-50
2022/12/26 21:17:35;;;;;;;17.17;2.67;;;;;;;5.20;94.50;101196.97;8283949;28;20124;-51
2022/12/26 21:21:38;;;;;;;12.82;2.97;;;;;;;5.26;95.14;101199.28;8268374;28;20054;-50
2022/12/26 21:25:38;;;;;;;17.95;3.08;;;;;;;5.28;95.19;101203.59;8283923;28;20570;-52
2022/12/26 21:29:39;;;;;;;13.55;2.70;;;;;;;5.29;94.75;101209.81;8284170;28;20069;-50
2022/12/26 21:33:39;;;;;;;11.23;2.25;;;;;;;5.25;95.12;101214.50;8283390;28;20613;-52
2022/12/26 21:37:55;;;;;;;14.90;3.15;;;;;;;5.25;95.81;101222.53;8283194;28;20056;-50
2022/12/26 21:41:55;;;;;;;14.48;3.75;;;;;;;5.31;96.04;101224.84;8263412;28;20046;-53
2022/12/26 21:45:58;;;;;;;8.73;1.85;;;;;;;5.19;96.42;101219.38;8282958;28;20038;-50
2022/12/26 21:49:59;;;;;;;6.93;1.90;;;;;;;5.17;96.62;101223.94;8284053;28;20458;-53
2022/12/26 21:55:35;;;;;;;13.73;1.98;;;;;;;5.16;96.71;101235.63;8281897;28;20096;-52
2022/12/26 21:58:19;;;;;;;11.30;2.13;;;;;;;5.21;96.04;101230.84;8282033;28;20038;-50